Rands, Iowa
Current Conditions -  °F | °C
As of 9:55 AM on Saturday 25 Oct 2014 (Local Time) from KCIN Reporting Station
Clear Clear  
Wind Chill: 57°   Ceiling: Unl
Heat Index: 57°   Visibility: 10mi
Dew Point: 45°   Wind: 7mph
Humidity: 63%   Direction: 20°NNE
Pressure: 30.12"   Gusts: NA
Location:  42.385°N, 94.6304°W
Report Text: KCIN 251455Z AUTO 02006KT 10SM CLR 14/07 A3012 RMK AO2
Loading
Personal Weather Stations






























Interactive Weather Map
Tropical Storm Tracking
New forecast layout! Learn more

10-Day Weather Forecast

Advertisements
Track Severe Weather on mobile